Airfield :
LOGIN :

Register | Disclaimer

   EN    FR    IT 

 










Legend :    VFR   Marginal VFR   IFR   Intensive IFR   Very Intensive IFR
Visi :
Ceiling :
>= 8 km
>= 3000ft
5 to 8 km
1000 to 3000 ft
1500m to 5 km
500 to 1000 ft
800 to 1500m
200 to 500 ft
< 800m
< 200 ft
Symbols :   Thunderstorms  Fog  Heavy snow  Heavy precipitations  Wind > 20 kt
SIGMETs :     Misc.  Thunderstorms  Icing  Turbulence  Mountain Waves  Volcanic Ashes






- Airport Elevation : 313 ft
- IATA code : LEH


LFOH - Le Havre Octeville

CURRENT METAR :
  • 120230Z AUTO 12005KT CAVOK 20/18 Q1013

EXPIRED METARs :
  • 120200Z AUTO 12005KT 9999 4600 NSC 20/18 Q1013
  • 120130Z AUTO 11004KT CAVOK 20/18 Q1013
  • 120100Z AUTO 11004KT CAVOK 21/18 Q1013
  • 120030Z AUTO 11005KT CAVOK 21/17 Q1013
  • 120000Z AUTO 13005KT CAVOK 22/18 Q1013

TAF AMD TAF LFOH
Valid from the 11 at 16:00 until the 12 at 12:00 UTC


111641Z 1116/1212 VRB02KT 8000 NSC
TEMPO 1116/1119 VRB20G35KT 2000 TSRAGS BKN070CB
ATIS : +33 2 35 54 64 93



MET'MAP, your aeronautical weather chart ! - Copyright ORBIFLY December 2007 - Disclaimer

ORBIFLY MET'MAP TEAM :

Programming & Development : Alexandra Zaïnal
Concept & original design : Baudouin d'Aumeries
Assistance for programming : Marc-Olivier Méhu
Technical & hardware support : Manuel Goepfert

Contact : metmap@orbifly.com




SOURCES & CREDITS :

   NOAA